createdAt,value
2018-08-11T00:00:27.862Z,2.40
2018-08-11T00:02:58.960Z,2.65
2018-08-11T00:05:30.580Z,2.92
2018-08-11T00:08:01.263Z,2.70
2018-08-11T00:10:32.302Z,2.75
2018-08-11T00:13:03.977Z,2.90
2018-08-11T00:15:34.144Z,2.80
2018-08-11T00:18:04.702Z,2.80
2018-08-11T00:20:35.601Z,3.35
2018-08-11T00:23:05.989Z,2.85
2018-08-11T00:25:36.167Z,2.70
2018-08-11T00:28:07.024Z,2.95
2018-08-11T00:30:38.284Z,2.45
2018-08-11T00:33:08.280Z,2.80
2018-08-11T00:35:38.280Z,2.58
2018-08-11T00:38:09.525Z,2.45
2018-08-11T00:40:39.949Z,2.05
2018-08-11T00:43:10.042Z,2.40
2018-08-11T00:45:40.712Z,2.40
2018-08-11T00:48:10.572Z,2.70
2018-08-11T00:50:40.557Z,2.55
2018-08-11T00:53:11.076Z,2.33
2018-08-11T00:55:41.114Z,2.33
2018-08-11T00:58:12.227Z,2.37
2018-08-11T01:00:42.459Z,1.80
2018-08-11T01:03:12.974Z,1.77
2018-08-11T01:05:43.680Z,2.15
2018-08-11T01:08:14.478Z,2.15
2018-08-11T01:10:46.306Z,2.33
2018-08-11T01:13:16.255Z,1.95
2018-08-11T01:15:46.200Z,2.12
2018-08-11T01:18:16.004Z,2.15
2018-08-11T01:20:46.133Z,2.50
2018-08-11T01:23:16.414Z,2.12
2018-08-11T01:25:46.571Z,2.30
2018-08-11T01:28:16.900Z,2.20
2018-08-11T01:30:47.034Z,2.00
2018-08-11T01:33:17.425Z,2.00
2018-08-11T01:35:47.352Z,1.77
2018-08-11T01:38:17.979Z,2.83
2018-08-11T01:40:47.974Z,1.80
2018-08-11T01:43:17.961Z,1.80
2018-08-11T01:45:47.936Z,2.47
2018-08-11T01:48:17.858Z,2.05
2018-08-11T01:50:47.959Z,1.75
2018-08-11T01:53:18.336Z,1.70
2018-08-11T01:55:49.095Z,2.15
2018-08-11T01:58:19.105Z,1.75
2018-08-11T02:00:49.074Z,2.05
2018-08-11T02:03:19.774Z,1.90
2018-08-11T02:05:49.926Z,1.60
2018-08-11T02:08:20.466Z,1.67
2018-08-11T02:10:50.593Z,1.77
2018-08-11T02:13:20.553Z,2.10
2018-08-11T02:15:50.554Z,1.95
2018-08-11T02:18:20.536Z,1.55
2018-08-11T02:20:50.434Z,2.15
2018-08-11T02:23:20.665Z,1.98
2018-08-11T02:25:50.872Z,1.52
2018-08-11T02:28:21.493Z,1.72
2018-08-11T02:34:00.858Z,1.90
2018-08-11T02:36:30.298Z,1.60
2018-08-11T02:39:03.259Z,1.87
2018-08-11T02:41:37.913Z,1.75
2018-08-11T02:44:11.684Z,1.52
2018-08-11T02:46:45.233Z,1.70
2018-08-11T02:49:21.910Z,2.65
2018-08-11T02:51:55.896Z,1.87
2018-08-11T02:54:30.239Z,1.50
2018-08-11T02:57:04.090Z,1.90
2018-08-11T02:59:38.596Z,2.10
2018-08-11T03:02:15.637Z,2.15
2018-08-11T03:04:48.174Z,1.70
2018-08-11T03:07:21.778Z,1.90
2018-08-11T03:09:55.697Z,1.70
2018-08-11T03:12:30.112Z,2.10
2018-08-11T03:15:02.501Z,1.70
2018-08-11T03:17:34.956Z,1.98
2018-08-11T03:20:08.891Z,1.98
2018-08-11T03:22:41.712Z,2.05
2018-08-11T03:25:14.763Z,1.90
2018-08-11T03:27:48.247Z,2.08
2018-08-11T03:30:25.913Z,1.80
2018-08-11T03:33:01.208Z,1.98
2018-08-11T03:35:31.478Z,1.80
2018-08-11T03:38:05.978Z,2.27
2018-08-11T03:40:40.878Z,1.87
2018-08-11T03:43:16.865Z,2.08
2018-08-11T03:45:53.950Z,1.80
2018-08-11T03:48:28.304Z,1.82
2018-08-11T03:51:00.338Z,1.87
2018-08-11T03:53:33.787Z,2.27
2018-08-11T03:56:08.582Z,2.15
2018-08-11T03:58:42.371Z,2.50
2018-08-11T04:01:14.342Z,2.45
2018-08-11T04:03:47.037Z,2.72
2018-08-11T04:06:18.803Z,2.42
2018-08-11T04:08:50.747Z,2.40
2018-08-11T04:11:22.631Z,2.27
2018-08-11T04:13:53.633Z,2.33
2018-08-11T04:16:27.466Z,2.25
2018-08-11T04:18:58.144Z,1.85
2018-08-11T04:21:29.053Z,1.95
2018-08-11T04:24:01.233Z,2.05
2018-08-11T04:26:36.587Z,2.50
2018-08-11T04:29:10.530Z,2.17
2018-08-11T04:31:42.397Z,2.00
2018-08-11T04:34:14.475Z,2.30
2018-08-11T04:36:48.540Z,1.95
2018-08-11T04:39:22.108Z,2.20
2018-08-11T04:41:52.969Z,2.17
2018-08-11T04:44:25.291Z,2.72
2018-08-11T04:46:56.685Z,2.30
2018-08-11T04:49:31.107Z,2.10
2018-08-11T04:52:05.468Z,2.10
2018-08-11T04:54:36.764Z,2.40
2018-08-11T04:57:07.520Z,1.72
2018-08-11T04:59:41.693Z,1.80
2018-08-11T05:02:13.361Z,2.12
2018-08-11T05:04:45.388Z,2.60
2018-08-11T05:07:17.847Z,1.70
2018-08-11T05:09:48.477Z,1.75
2018-08-11T05:12:18.873Z,2.05
2018-08-11T05:14:50.149Z,1.70
2018-08-11T05:17:20.154Z,1.60
2018-08-11T05:19:50.650Z,1.90
2018-08-11T05:22:21.425Z,2.25
2018-08-11T05:24:54.438Z,2.77
2018-08-11T05:27:30.406Z,2.20
2018-08-11T05:30:04.786Z,1.80
2018-08-11T05:32:45.755Z,1.80
2018-08-11T05:35:25.657Z,2.00
2018-08-11T05:37:59.500Z,2.10
2018-08-11T05:43:32.928Z,1.90
2018-08-11T05:46:05.827Z,2.02
2018-08-11T05:48:40.304Z,2.15
2018-08-11T05:51:15.897Z,1.85
2018-08-11T05:53:46.070Z,2.45
2018-08-11T05:56:15.576Z,1.85
2018-08-11T05:58:51.498Z,1.80
2018-08-11T06:01:22.503Z,2.00
2018-08-11T06:04:01.818Z,2.10
2018-08-11T06:06:33.889Z,1.95
2018-08-11T06:09:10.530Z,1.77
2018-08-11T06:11:48.345Z,1.77
2018-08-11T06:14:29.431Z,1.55
2018-08-11T06:17:09.541Z,1.80
2018-08-11T06:19:44.854Z,2.55
2018-08-11T06:22:18.384Z,2.22
2018-08-11T06:24:49.666Z,1.90
2018-08-11T06:27:21.667Z,1.75
2018-08-11T06:30:04.244Z,1.82
2018-08-11T06:32:36.685Z,1.95
2018-08-11T06:35:08.589Z,1.72
2018-08-11T06:37:39.058Z,1.77
2018-08-11T06:40:15.145Z,2.20
2018-08-11T06:42:52.027Z,1.92
2018-08-11T06:45:28.407Z,1.50
2018-08-11T06:48:05.363Z,1.72
2018-08-11T06:50:42.304Z,1.82
2018-08-11T06:53:17.443Z,2.15
2018-08-11T06:55:54.376Z,1.98
2018-08-11T06:58:32.598Z,1.87
2018-08-11T07:01:13.960Z,2.02
2018-08-11T07:45:49.498Z,2.25
2018-08-11T07:48:20.608Z,2.00
2018-08-11T07:50:50.665Z,2.10
2018-08-11T07:53:21.995Z,2.08
2018-08-11T07:55:52.279Z,2.22
2018-08-11T07:58:22.316Z,2.42
2018-08-11T08:00:54.241Z,1.75
2018-08-11T08:03:24.172Z,1.80
2018-08-11T08:05:58.200Z,1.67
2018-08-11T08:08:28.460Z,1.77
2018-08-11T08:11:09.293Z,2.15
2018-08-11T08:13:46.472Z,2.10
2018-08-11T08:16:17.231Z,1.77
2018-08-11T08:18:48.147Z,1.80
2018-08-11T08:21:18.243Z,1.90
2018-08-11T08:23:48.625Z,1.80
2018-08-11T08:26:19.012Z,1.60
2018-08-11T08:28:49.158Z,1.70
2018-08-11T08:31:22.021Z,1.60
2018-08-11T08:33:53.061Z,1.75
2018-08-11T08:36:23.100Z,1.60
2018-08-11T08:38:53.167Z,2.00
2018-08-11T08:41:23.566Z,1.85
2018-08-11T08:43:53.673Z,1.50
2018-08-11T08:46:23.725Z,1.70
2018-08-11T08:48:54.115Z,1.60
2018-08-11T08:51:24.309Z,1.82
2018-08-11T08:53:54.519Z,1.82
2018-08-11T08:56:24.467Z,1.95
2018-08-11T08:58:54.399Z,1.50
2018-08-11T09:01:26.952Z,1.80
2018-08-11T09:03:57.289Z,1.75
2018-08-11T09:06:27.775Z,2.10
2018-08-11T09:08:57.685Z,1.52
2018-08-11T09:11:28.030Z,1.67
2018-08-11T09:14:00.679Z,1.82
2018-08-11T09:16:36.843Z,2.35
2018-08-11T09:19:07.032Z,1.50
2018-08-11T09:21:43.249Z,2.00
2018-08-11T09:24:22.665Z,1.65
2018-08-11T09:26:56.726Z,2.12
2018-08-11T09:29:27.193Z,1.77
2018-08-11T09:31:57.491Z,1.80
2018-08-11T09:34:27.511Z,1.55
2018-08-11T09:36:57.799Z,1.98
2018-08-11T09:39:27.993Z,1.62
2018-08-11T09:42:01.673Z,1.40
2018-08-11T09:44:32.770Z,1.75
2018-08-11T09:47:04.284Z,2.08
2018-08-11T09:49:35.486Z,1.87
2018-08-11T09:52:09.496Z,1.62
2018-08-11T09:54:40.328Z,1.70
2018-08-11T09:57:11.497Z,1.67
2018-08-11T09:59:41.609Z,1.82
2018-08-11T10:02:21.472Z,1.95
2018-08-11T10:04:52.778Z,1.70
2018-08-11T10:07:23.037Z,1.77
2018-08-11T10:09:52.985Z,1.50
2018-08-11T10:12:22.879Z,1.60
2018-08-11T10:14:55.753Z,1.80
2018-08-11T10:17:25.725Z,1.60
2018-08-11T10:19:56.346Z,1.82
2018-08-11T10:22:27.809Z,1.62
2018-08-11T10:24:58.644Z,1.50
2018-08-11T10:27:30.650Z,1.75
2018-08-11T10:30:06.010Z,1.30
2018-08-11T10:32:39.409Z,2.02
2018-08-11T10:35:19.770Z,1.57
2018-08-11T10:37:52.479Z,1.70
2018-08-11T10:40:22.949Z,1.40
2018-08-11T10:45:45.113Z,1.77
2018-08-11T10:48:17.859Z,1.75
2018-08-11T10:50:54.628Z,1.70
2018-08-11T10:53:28.298Z,1.80
2018-08-11T10:56:02.781Z,1.47
2018-08-11T10:58:38.841Z,1.52
2018-08-11T11:01:18.083Z,1.72
2018-08-11T11:03:59.012Z,1.60
2018-08-11T11:06:33.308Z,1.80
2018-08-11T11:09:05.550Z,1.87
2018-08-11T11:11:42.457Z,2.00
2018-08-11T11:14:17.385Z,1.50
2018-08-11T11:16:57.751Z,1.40
2018-08-11T11:19:36.385Z,1.37
2018-08-11T11:22:07.640Z,1.85
2018-08-11T11:24:39.112Z,1.60
2018-08-11T11:27:08.752Z,1.50
2018-08-11T11:29:41.580Z,1.40
2018-08-11T11:32:11.950Z,1.92
2018-08-11T11:34:44.464Z,1.40
2018-08-11T11:37:16.143Z,1.47
2018-08-11T11:39:46.185Z,1.57
2018-08-11T11:42:15.700Z,1.45
2018-08-11T11:44:45.191Z,1.67
2018-08-11T11:47:16.853Z,1.40
2018-08-11T11:49:47.957Z,1.55
2018-08-11T11:52:19.296Z,1.80
2018-08-11T11:54:52.541Z,1.50
2018-08-11T11:57:31.281Z,1.67
2018-08-11T12:00:11.691Z,1.67
2018-08-11T12:02:51.237Z,1.40
2018-08-11T12:05:29.540Z,1.30
2018-08-11T12:08:07.587Z,1.45
2018-08-11T12:10:43.245Z,1.47
2018-08-11T12:13:29.322Z,1.45
2018-08-11T12:16:03.864Z,1.42
2018-08-11T12:18:46.138Z,1.70
2018-08-11T12:21:21.655Z,1.57
2018-08-11T12:24:03.058Z,1.95
2018-08-11T12:26:40.132Z,1.65
2018-08-11T12:29:20.820Z,1.65
2018-08-11T12:31:59.692Z,1.60
2018-08-11T12:34:38.485Z,1.70
2018-08-11T12:37:17.931Z,2.05
2018-08-11T12:39:54.855Z,1.60
2018-08-11T12:42:26.597Z,1.50
2018-08-11T12:45:08.791Z,1.62
2018-08-11T12:47:51.380Z,1.67
2018-08-11T12:50:26.118Z,1.65
2018-08-11T12:53:06.113Z,2.00
2018-08-11T12:55:39.117Z,1.85
2018-08-11T12:58:15.887Z,1.42
2018-08-11T13:00:56.966Z,1.72
2018-08-11T13:03:33.221Z,1.47
2018-08-11T13:06:08.809Z,1.90
2018-08-11T13:08:48.337Z,1.72
2018-08-11T13:11:31.155Z,1.40
2018-08-11T13:14:12.080Z,1.50
2018-08-11T13:16:50.721Z,1.77
2018-08-11T13:19:29.535Z,1.60
2018-08-11T13:22:01.846Z,1.60
2018-08-11T13:24:37.009Z,1.42
2018-08-11T13:27:15.204Z,1.70
2018-08-11T13:32:26.969Z,1.35
2018-08-11T13:35:02.450Z,1.82
2018-08-11T13:37:41.678Z,1.57
2018-08-11T13:40:21.268Z,1.70
2018-08-11T13:42:59.041Z,1.60
2018-08-11T13:45:33.204Z,1.50
2018-08-11T13:48:05.474Z,1.80
2018-08-11T13:50:41.292Z,2.00
2018-08-11T13:53:16.761Z,2.05
2018-08-11T13:55:49.627Z,1.60
2018-08-11T13:58:26.885Z,1.90
2018-08-11T14:01:05.135Z,1.40
2018-08-11T14:03:40.291Z,2.15
2018-08-11T14:06:16.582Z,1.70
2018-08-11T14:08:51.964Z,1.87
2018-08-11T14:11:27.340Z,1.60
2018-08-11T14:14:00.156Z,1.77
2018-08-11T14:16:37.961Z,1.80
2018-08-11T14:19:14.402Z,2.10
2018-08-11T14:21:51.839Z,1.82
2018-08-11T14:24:33.419Z,1.50
2018-08-11T14:27:08.952Z,1.82
2018-08-11T14:29:42.605Z,1.82
2018-08-11T14:32:14.643Z,1.92
2018-08-11T14:34:50.191Z,2.05
2018-08-11T14:37:27.897Z,2.05
2018-08-11T14:40:07.860Z,1.57
2018-08-11T14:42:48.258Z,1.92
2018-08-11T14:45:22.130Z,1.77
2018-08-11T14:47:56.950Z,2.50
2018-08-11T14:50:32.904Z,1.92
2018-08-11T14:53:06.103Z,2.20
2018-08-11T14:55:39.855Z,2.30
2018-08-11T14:58:14.177Z,2.00
2018-08-11T15:00:48.853Z,2.08
2018-08-11T15:03:22.823Z,2.05
2018-08-11T15:05:56.821Z,2.37
2018-08-11T15:08:30.078Z,2.37
2018-08-11T15:11:05.000Z,2.30
2018-08-11T15:13:41.989Z,1.80
2018-08-11T15:16:15.590Z,1.77
2018-08-11T15:18:48.998Z,2.00
2018-08-11T15:21:25.306Z,2.20
2018-08-11T15:23:58.330Z,2.47
2018-08-11T15:26:37.130Z,2.72
2018-08-11T15:29:11.893Z,2.42
2018-08-11T15:31:52.136Z,1.85
2018-08-11T15:34:32.675Z,2.05
2018-08-11T15:37:09.347Z,2.00
2018-08-11T15:39:47.587Z,6.40
2018-08-11T18:54:25.464Z,2.40
2018-08-11T18:56:55.642Z,2.40
2018-08-11T18:59:27.475Z,2.15
2018-08-11T19:01:58.564Z,2.52
2018-08-11T19:04:29.067Z,2.75
2018-08-11T19:06:59.091Z,2.05
2018-08-11T19:09:31.607Z,2.25
2018-08-11T19:12:03.232Z,3.20
2018-08-11T19:14:33.675Z,2.40
2018-08-11T19:17:04.176Z,2.10
2018-08-11T19:19:34.635Z,2.17
2018-08-11T19:22:04.762Z,2.30
2018-08-11T19:24:34.679Z,1.92
2018-08-11T19:27:04.563Z,2.00
2018-08-11T19:29:34.649Z,2.50
2018-08-11T19:32:05.769Z,2.40
2018-08-11T19:34:35.668Z,3.10
2018-08-11T19:37:06.022Z,2.40
2018-08-11T19:39:36.283Z,2.67
2018-08-11T19:42:07.127Z,2.60
2018-08-11T19:44:36.868Z,2.40
2018-08-11T19:47:06.677Z,2.75
2018-08-11T19:49:36.591Z,2.95
2018-08-11T19:52:06.823Z,2.77
2018-08-11T19:54:36.803Z,3.20
2018-08-11T19:57:06.766Z,2.85
2018-08-11T19:59:36.630Z,3.15
2018-08-11T20:02:06.645Z,2.67
2018-08-11T20:04:37.296Z,3.95
2018-08-11T20:07:07.327Z,4.97
2018-08-11T20:09:37.157Z,3.47
2018-08-11T20:12:06.947Z,3.35
2018-08-11T20:14:36.997Z,2.90
2018-08-11T20:17:07.359Z,3.05
2018-08-11T20:19:37.184Z,2.47
2018-08-11T20:22:13.037Z,3.22
2018-08-11T20:24:43.076Z,2.60
2018-08-11T20:27:13.321Z,2.70
2018-08-11T20:29:43.206Z,2.70
2018-08-11T20:32:14.237Z,2.70
2018-08-11T20:34:44.590Z,3.52
2018-08-11T20:37:14.447Z,3.08
2018-08-11T20:39:44.312Z,3.15
2018-08-11T20:42:14.124Z,3.50
2018-08-11T20:44:43.939Z,3.58
2018-08-11T20:47:13.692Z,4.97
2018-08-11T20:49:43.426Z,9.38
2018-08-11T20:52:13.163Z,9.05
2018-08-11T20:54:44.035Z,6.05
2018-08-11T20:57:13.943Z,4.78
2018-08-11T20:59:43.948Z,3.30
2018-08-11T21:02:14.728Z,3.55
2018-08-11T21:04:45.586Z,3.30
2018-08-11T21:07:15.887Z,3.52
2018-08-11T21:09:46.031Z,3.75
2018-08-11T21:12:16.039Z,4.25
2018-08-11T21:14:46.841Z,3.72
2018-08-11T21:17:16.795Z,4.25
2018-08-11T21:19:46.928Z,3.95
2018-08-11T21:22:16.802Z,4.60
2018-08-11T21:24:46.949Z,4.83
2018-08-11T21:27:17.667Z,3.85
2018-08-11T21:29:47.389Z,4.22
2018-08-11T21:32:17.803Z,4.85
2018-08-11T21:34:49.106Z,4.65
2018-08-11T21:37:18.853Z,5.55
2018-08-11T21:39:48.774Z,4.42
2018-08-11T21:42:19.043Z,5.28
2018-08-11T21:44:48.807Z,4.53
2018-08-11T21:47:18.580Z,4.33
2018-08-11T21:49:48.327Z,3.92
2018-08-11T21:52:18.232Z,5.70
2018-08-11T21:54:48.668Z,4.45
2018-08-11T21:57:18.589Z,4.08
2018-08-11T21:59:48.443Z,4.10
2018-08-11T22:02:18.293Z,4.37
2018-08-11T22:04:48.207Z,4.10
2018-08-11T22:07:18.395Z,4.28
2018-08-11T22:09:48.875Z,3.85
2018-08-11T22:12:19.504Z,4.17
2018-08-11T22:14:49.236Z,4.10
2018-08-11T22:17:18.976Z,4.22
2018-08-11T22:19:48.665Z,4.40
2018-08-11T22:22:18.444Z,4.22
2018-08-11T22:24:48.245Z,4.30
2018-08-11T22:27:18.148Z,4.22
2018-08-11T22:29:48.272Z,5.00
2018-08-11T22:32:18.085Z,4.28
2018-08-11T22:34:47.851Z,4.03
2018-08-11T22:37:17.702Z,4.17
2018-08-11T22:39:47.410Z,5.08
2018-08-11T22:42:17.272Z,5.37
2018-08-11T22:44:47.677Z,4.78
2018-08-11T22:47:17.621Z,4.72
2018-08-11T22:49:47.374Z,4.58
2018-08-11T22:52:17.459Z,5.12
2018-08-11T22:54:47.305Z,4.40
2018-08-11T22:57:16.983Z,4.83
2018-08-11T22:59:46.654Z,4.62
2018-08-11T23:02:16.575Z,5.00
2018-08-11T23:04:46.584Z,4.50
2018-08-11T23:07:16.536Z,4.72
2018-08-11T23:09:46.465Z,4.53
2018-08-11T23:12:16.333Z,5.37
2018-08-11T23:14:46.138Z,6.40
2018-08-11T23:17:16.073Z,5.50
2018-08-11T23:19:45.689Z,6.25
2018-08-11T23:22:15.269Z,6.90
2018-08-11T23:24:45.058Z,9.95
2018-08-11T23:27:14.901Z,9.23
2018-08-11T23:29:45.293Z,9.60
2018-08-11T23:32:15.229Z,10.28
2018-08-11T23:34:44.984Z,9.28
2018-08-11T23:37:14.711Z,8.50
2018-08-11T23:39:45.310Z,8.63
2018-08-11T23:42:15.224Z,7.85
2018-08-11T23:44:45.110Z,7.22
2018-08-11T23:47:14.915Z,6.58
2018-08-11T23:49:44.720Z,6.60
2018-08-11T23:52:14.480Z,6.35
2018-08-11T23:54:44.208Z,5.55
2018-08-11T23:57:14.368Z,6.28
2018-08-11T23:59:44.840Z,6.05
